Time;durP1;ratioP1;P1;durP2;ratioP2;P2;SDS_P1;SDS_P2;PMS_P1;PMS_P2;Temp;Humidity;BMP_temperature;BMP_pressure;BME280_temperature;BME280_humidity;BME280_pressure;Samples;Min_cycle;Max_cycle;Signal;HPM_P1;HPM_P2
2023/05/14 00:01:24;;;;;;;15.43;7.25;;;11.50;99.90;;;;;;5069990;28;20521;-71
2023/05/14 00:03:50;;;;;;;13.07;7.72;;;11.50;99.90;;;;;;5066298;28;20049;-71
2023/05/14 00:06:16;;;;;;;14.98;7.30;;;11.50;99.90;;;;;;5069399;28;20049;-71
2023/05/14 00:08:41;;;;;;;12.18;7.53;;;11.50;99.90;;;;;;5068883;28;20090;-70
2023/05/14 00:11:07;;;;;;;14.15;7.05;;;11.50;99.90;;;;;;5067167;28;20051;-71
2023/05/14 00:13:34;;;;;;;14.63;8.18;;;11.40;99.90;;;;;;5068464;28;20133;-72
2023/05/14 00:16:00;;;;;;;16.58;7.70;;;11.40;99.90;;;;;;5069864;28;20051;-71
2023/05/14 00:18:26;;;;;;;9.75;7.38;;;11.60;99.90;;;;;;5069409;28;20060;-72
2023/05/14 00:20:53;;;;;;;18.40;7.50;;;11.40;99.90;;;;;;5068338;28;20040;-69
2023/05/14 00:23:20;;;;;;;16.52;7.57;;;11.40;99.90;;;;;;5068141;28;20048;-72
2023/05/14 00:25:46;;;;;;;13.43;7.75;;;11.40;99.90;;;;;;5069801;28;20127;-72
2023/05/14 00:28:12;;;;;;;14.50;7.25;;;11.60;99.90;;;;;;5066354;28;20151;-71
2023/05/14 00:30:40;;;;;;;17.08;8.25;;;11.40;99.90;;;;;;5065950;28;20048;-71
2023/05/14 00:33:06;;;;;;;11.20;7.43;;;11.30;99.90;;;;;;5069518;28;20044;-71
2023/05/14 00:35:34;;;;;;;16.10;7.63;;;11.30;99.90;;;;;;5065338;28;20206;-71
2023/05/14 00:38:00;;;;;;;15.50;8.13;;;11.50;99.90;;;;;;5069661;28;20398;-73
2023/05/14 00:40:27;;;;;;;12.60;7.13;;;11.30;99.90;;;;;;5068030;28;20151;-69
2023/05/14 00:42:53;;;;;;;19.23;7.72;;;11.30;99.90;;;;;;5067966;28;20044;-72
2023/05/14 00:45:19;;;;;;;15.68;6.88;;;11.20;99.90;;;;;;5069193;28;20090;-72
2023/05/14 00:47:45;;;;;;;14.50;7.40;;;11.20;99.90;;;;;;5069024;28;20052;-74
2023/05/14 00:50:12;;;;;;;18.98;8.05;;;11.20;99.90;;;;;;5069020;28;20044;-71
2023/05/14 00:52:39;;;;;;;13.65;6.85;;;11.40;99.90;;;;;;5068288;28;20090;-70
2023/05/14 00:55:05;;;;;;;16.65;7.55;;;11.20;99.90;;;;;;5067243;28;20045;-71
2023/05/14 00:57:32;;;;;;;14.65;8.02;;;11.20;99.90;;;;;;5067626;28;20090;-72
2023/05/14 00:59:58;;;;;;;15.48;8.07;;;11.10;99.90;;;;;;5065973;28;20479;-72
2023/05/14 01:02:25;;;;;;;18.58;7.70;;;11.40;99.90;;;;;;5067646;28;20040;-71
2023/05/14 01:04:51;;;;;;;17.52;7.32;;;11.10;99.90;;;;;;5068704;28;20041;-72
2023/05/14 01:07:45;;;;;;;14.32;7.80;;;11.10;99.90;;;;;;5067342;28;20397;-71
2023/05/14 01:10:17;;;;;;;12.02;6.90;;;10.90;99.90;;;;;;5066552;28;20059;-70
2023/05/14 01:12:56;;;;;;;15.18;7.25;;;11.10;99.90;;;;;;5068948;28;20040;-71
2023/05/14 01:15:32;;;;;;;11.95;6.38;;;11.00;99.90;;;;;;5067010;28;20048;-70
2023/05/14 01:18:03;;;;;;;17.35;7.32;;;11.00;99.90;;;;;;5067624;28;20086;-72
2023/05/14 01:20:29;;;;;;;15.60;7.25;;;11.20;99.90;;;;;;5065834;28;20135;-71
2023/05/14 01:22:55;;;;;;;18.55;7.28;;;11.00;99.90;;;;;;5067706;28;20131;-70
2023/05/14 01:25:20;;;;;;;16.38;6.80;;;10.70;99.90;;;;;;5065815;28;20510;-71
2023/05/14 01:27:49;;;;;;;12.90;6.85;;;11.10;99.90;;;;;;5067287;28;20059;-71
2023/05/14 01:30:34;;;;;;;13.65;6.90;;;11.00;99.90;;;;;;5065287;28;20056;-71
2023/05/14 01:33:05;;;;;;;17.58;6.95;;;10.90;99.90;;;;;;5062455;28;20690;-74
2023/05/14 01:35:31;;;;;;;11.65;6.18;;;10.90;99.90;;;;;;5068347;28;20060;-72
2023/05/14 01:38:00;;;;;;;11.73;6.20;;;10.90;99.90;;;;;;5067024;28;20635;-71
2023/05/14 01:40:26;;;;;;;13.70;6.85;;;11.10;99.90;;;;;;5060058;28;20088;-71
2023/05/14 01:42:53;;;;;;;12.68;6.85;;;11.00;99.90;;;;;;5068805;28;20051;-70
2023/05/14 01:45:20;;;;;;;10.55;5.90;;;10.90;99.90;;;;;;5067482;28;20032;-71
2023/05/14 01:47:46;;;;;;;12.05;6.40;;;11.20;99.90;;;;;;5065551;28;20036;-71
2023/05/14 01:50:11;;;;;;;13.65;6.45;;;10.80;99.90;;;;;;5068689;28;20102;-71
2023/05/14 01:52:37;;;;;;;15.02;6.00;;;11.00;99.90;;;;;;5066059;28;20040;-71
2023/05/14 01:55:04;;;;;;;14.05;5.55;;;10.80;99.90;;;;;;5068028;28;20051;-72
2023/05/14 01:57:30;;;;;;;15.80;6.50;;;10.80;99.90;;;;;;5068960;28;20076;-73
2023/05/14 01:59:55;;;;;;;19.92;7.43;;;11.00;99.90;;;;;;5065600;28;20064;-70
2023/05/14 02:02:21;;;;;;;14.68;7.55;;;10.80;99.90;;;;;;5061041;28;20431;-71
2023/05/14 02:04:47;;;;;;;19.08;8.32;;;11.00;99.90;;;;;;5069470;28;20041;-70
2023/05/14 02:07:12;;;;;;;12.30;7.88;;;10.80;99.90;;;;;;5068747;28;20115;-70
2023/05/14 02:09:39;;;;;;;18.60;8.68;;;10.80;99.90;;;;;;5068667;28;20474;-71
2023/05/14 02:12:08;;;;;;;14.85;8.38;;;10.80;99.90;;;;;;5069141;28;20093;-70
2023/05/14 02:14:34;;;;;;;14.85;7.95;;;10.80;99.90;;;;;;5069403;28;20056;-70
2023/05/14 02:16:59;;;;;;;16.33;9.07;;;10.80;99.90;;;;;;5068419;28;20048;-71
2023/05/14 02:19:25;;;;;;;17.98;8.48;;;10.80;99.90;;;;;;5060573;28;20037;-72
2023/05/14 02:21:50;;;;;;;14.02;8.80;;;10.80;99.90;;;;;;5069163;28;20499;-71
2023/05/14 02:24:16;;;;;;;17.48;8.55;;;10.70;99.90;;;;;;5067360;28;20243;-72
2023/05/14 02:26:42;;;;;;;13.68;7.65;;;11.00;99.90;;;;;;5067735;28;20044;-71
2023/05/14 02:29:07;;;;;;;16.48;8.13;;;11.10;99.90;;;;;;5069295;28;20552;-70
2023/05/14 02:31:33;;;;;;;13.52;7.65;;;10.80;99.90;;;;;;5061899;28;20033;-71
2023/05/14 02:34:03;;;;;;;17.48;8.30;;;10.80;99.90;;;;;;5069157;28;20052;-71
2023/05/14 02:36:28;;;;;;;17.85;9.45;;;10.70;99.90;;;;;;5068840;28;20090;-71
2023/05/14 02:38:54;;;;;;;13.27;8.10;;;10.70;99.90;;;;;;5067225;28;20048;-70
2023/05/14 02:41:20;;;;;;;21.77;8.50;;;10.70;99.90;;;;;;5068918;28;20040;-71
2023/05/14 02:43:46;;;;;;;18.73;8.85;;;10.70;99.90;;;;;;5061402;28;20811;-70
2023/05/14 02:46:12;;;;;;;15.27;7.80;;;11.00;99.90;;;;;;5068007;28;20063;-70
2023/05/14 02:48:37;;;;;;;16.10;8.65;;;10.70;99.90;;;;;;5069280;28;20704;-71
2023/05/14 02:51:03;;;;;;;15.43;8.20;;;10.70;99.90;;;;;;5069166;28;20048;-71
2023/05/14 02:53:29;;;;;;;17.30;8.70;;;10.60;99.90;;;;;;5063543;28;20043;-68
2023/05/14 02:55:55;;;;;;;20.23;7.55;;;10.60;99.90;;;;;;5065903;28;20124;-72
2023/05/14 02:58:20;;;;;;;18.23;8.48;;;10.60;99.90;;;;;;5064410;28;20056;-71
2023/05/14 03:00:46;;;;;;;15.43;7.80;;;10.70;99.90;;;;;;5068228;28;20055;-71
2023/05/14 03:03:11;;;;;;;16.15;7.88;;;10.70;99.90;;;;;;5061479;28;20060;-70
2023/05/14 03:05:37;;;;;;;20.45;8.80;;;11.00;99.90;;;;;;5068793;28;20072;-70
2023/05/14 03:08:03;;;;;;;23.83;9.05;;;10.70;99.90;;;;;;5063713;28;20059;-71
2023/05/14 03:10:28;;;;;;;20.85;9.93;;;10.60;99.90;;;;;;5068648;28;20391;-74
2023/05/14 03:12:54;;;;;;;17.30;8.70;;;10.60;99.90;;;;;;5068741;28;20538;-70
2023/05/14 03:15:20;;;;;;;22.27;9.10;;;10.70;99.90;;;;;;5068798;28;20048;-70
2023/05/14 03:17:45;;;;;;;15.50;8.43;;;10.60;99.90;;;;;;5065633;28;20049;-72
2023/05/14 03:20:12;;;;;;;19.80;9.27;;;10.60;99.90;;;;;;5070796;28;20398;-70
2023/05/14 03:22:37;;;;;;;20.15;8.65;;;10.50;99.90;;;;;;5070556;28;20123;-70
2023/05/14 03:25:03;;;;;;;28.80;10.25;;;10.80;99.90;;;;;;5071990;28;20505;-71
2023/05/14 03:27:29;;;;;;;17.48;8.60;;;10.50;99.90;;;;;;5071081;28;20048;-72
2023/05/14 03:29:54;;;;;;;22.15;8.93;;;10.60;99.90;;;;;;5072502;28;20044;-71
2023/05/14 03:32:20;;;;;;;21.05;10.05;;;10.50;99.90;;;;;;5070391;28;20492;-71
2023/05/14 03:34:46;;;;;;;22.70;9.07;;;10.50;99.90;;;;;;5071120;28;20048;-76
2023/05/14 03:37:11;;;;;;;15.57;8.85;;;10.40;99.90;;;;;;5072047;28;20056;-71
2023/05/14 03:39:37;;;;;;;15.95;9.15;;;10.40;99.90;;;;;;5071563;28;20044;-72
2023/05/14 03:42:03;;;;;;;18.58;8.65;;;10.40;99.90;;;;;;5070128;28;20048;-70
2023/05/14 03:44:28;;;;;;;20.63;10.25;;;10.40;99.90;;;;;;5071009;28;20072;-72
2023/05/14 03:46:54;;;;;;;18.35;9.02;;;10.40;99.90;;;;;;5071920;28;20118;-71
2023/05/14 03:49:20;;;;;;;16.08;10.13;;;10.40;99.90;;;;;;5072281;28;20052;-70
2023/05/14 03:51:46;;;;;;;21.45;11.13;;;10.40;99.90;;;;;;5071823;28;20422;-70
2023/05/14 03:54:11;;;;;;;24.23;11.02;;;10.30;99.90;;;;;;5071472;28;20048;-70
2023/05/14 03:56:37;;;;;;;25.88;10.32;;;10.40;99.90;;;;;;5071828;28;20420;-71
2023/05/14 03:59:02;;;;;;;23.20;11.05;;;10.40;99.90;;;;;;5071919;28;20052;-71
2023/05/14 04:01:28;;;;;;;22.52;11.55;;;10.40;99.90;;;;;;5070172;28;20126;-71
2023/05/14 04:03:54;;;;;;;21.90;10.45;;;10.40;99.90;;;;;;5071766;28;20123;-71
2023/05/14 04:06:19;;;;;;;23.02;11.63;;;10.50;99.90;;;;;;5072083;28;20703;-70
2023/05/14 04:08:45;;;;;;;27.88;11.52;;;10.40;99.90;;;;;;5071737;28;20464;-70
2023/05/14 04:11:11;;;;;;;26.92;11.50;;;10.50;99.90;;;;;;5067803;28;20041;-71
2023/05/14 04:13:36;;;;;;;24.10;10.85;;;10.40;99.90;;;;;;5062682;28;20056;-72
2023/05/14 04:16:02;;;;;;;21.15;10.70;;;10.40;99.90;;;;;;5065100;28;20388;-71
2023/05/14 04:18:28;;;;;;;21.95;11.02;;;10.40;99.90;;;;;;5063836;28;20101;-71
2023/05/14 04:20:53;;;;;;;25.33;10.10;;;10.40;99.90;;;;;;5071388;28;20120;-72
2023/05/14 04:23:20;;;;;;;21.40;10.55;;;10.70;99.90;;;;;;5069938;28;20044;-71
2023/05/14 04:25:45;;;;;;;24.23;10.25;;;10.40;99.90;;;;;;5062968;28;20437;-70
2023/05/14 04:28:11;;;;;;;20.98;8.90;;;10.40;99.90;;;;;;5069749;28;20049;-71
2023/05/14 04:30:37;;;;;;;26.50;9.57;;;10.50;99.90;;;;;;5071119;28;20048;-71
2023/05/14 04:33:02;;;;;;;21.55;8.38;;;10.70;99.90;;;;;;5065760;28;20067;-70
2023/05/14 04:35:28;;;;;;;18.40;8.50;;;10.60;99.90;;;;;;5072144;28;20086;-72
2023/05/14 04:37:54;;;;;;;20.75;8.07;;;10.70;99.90;;;;;;5072241;28;20048;-71
2023/05/14 04:40:19;;;;;;;25.05;8.75;;;10.60;99.90;;;;;;5071983;28;20086;-71
2023/05/14 04:42:45;;;;;;;21.48;7.72;;;10.60;99.90;;;;;;5069797;28;20132;-70
2023/05/14 04:45:12;;;;;;;23.50;8.13;;;10.90;99.90;;;;;;5065019;28;20705;-70
2023/05/14 04:47:38;;;;;;;19.42;7.65;;;10.70;99.90;;;;;;5071350;28;20162;-71
2023/05/14 04:50:05;;;;;;;19.75;8.10;;;10.70;99.90;;;;;;5070804;28;20040;-70
2023/05/14 04:52:31;;;;;;;22.88;8.13;;;10.80;99.90;;;;;;5070921;28;20053;-71
2023/05/14 04:54:57;;;;;;;19.20;7.63;;;11.10;99.90;;;;;;5065954;28;20044;-70
2023/05/14 04:57:22;;;;;;;28.23;9.13;;;10.90;99.90;;;;;;5068767;28;20074;-70
2023/05/14 04:59:48;;;;;;;26.15;7.93;;;11.00;99.90;;;;;;5070656;28;20066;-71
2023/05/14 05:02:13;;;;;;;24.50;8.10;;;11.10;99.90;;;;;;5070796;28;20479;-70
2023/05/14 05:04:39;;;;;;;25.23;9.02;;;11.20;99.90;;;;;;5070544;28;20052;-69
2023/05/14 05:07:05;;;;;;;20.73;8.82;;;11.10;99.90;;;;;;5070736;28;20110;-72
2023/05/14 05:09:31;;;;;;;19.83;8.55;;;11.40;99.90;;;;;;5070533;28;20043;-71
2023/05/14 05:11:56;;;;;;;24.08;8.95;;;11.30;99.90;;;;;;5066489;28;20090;-71
2023/05/14 05:14:22;;;;;;;22.58;8.30;;;11.40;99.90;;;;;;5068602;28;20044;-73
2023/05/14 05:16:48;;;;;;;20.77;8.68;;;11.40;99.90;;;;;;5070339;28;20032;-71
2023/05/14 05:19:13;;;;;;;20.15;9.88;;;11.50;99.90;;;;;;5069226;28;20060;-70
2023/05/14 05:21:39;;;;;;;25.48;9.05;;;11.50;99.90;;;;;;5068530;28;20045;-70
2023/05/14 05:24:06;;;;;;;23.92;9.52;;;11.60;99.90;;;;;;5067777;28;20129;-71
2023/05/14 05:26:35;;;;;;;24.80;9.65;;;11.60;99.90;;;;;;5070336;28;20060;-71
2023/05/14 05:29:02;;;;;;;26.45;9.52;;;11.70;99.90;;;;;;5070327;28;20055;-70
2023/05/14 05:31:27;;;;;;;26.15;9.45;;;11.70;99.90;;;;;;5070398;28;20415;-72
2023/05/14 05:33:53;;;;;;;27.75;9.25;;;11.80;99.90;;;;;;5070398;28;20118;-70
2023/05/14 05:36:18;;;;;;;19.88;9.13;;;11.80;99.90;;;;;;5070370;28;20040;-71
2023/05/14 05:38:44;;;;;;;21.58;9.90;;;11.80;99.90;;;;;;5069823;28;20380;-70
2023/05/14 05:41:10;;;;;;;21.70;8.10;;;11.90;99.90;;;;;;5070030;28;20398;-70
2023/05/14 05:43:35;;;;;;;19.08;8.48;;;12.00;99.90;;;;;;5068892;28;20368;-69
2023/05/14 05:46:01;;;;;;;27.45;9.18;;;12.00;99.90;;;;;;5069723;28;20563;-72
2023/05/14 05:48:27;;;;;;;29.23;8.93;;;12.00;99.90;;;;;;5070114;28;20376;-68
2023/05/14 05:50:53;;;;;;;23.55;8.85;;;12.10;99.90;;;;;;5064951;28;20438;-70
2023/05/14 05:53:18;;;;;;;20.25;8.88;;;12.10;99.90;;;;;;5064983;28;20051;-71
2023/05/14 05:55:44;;;;;;;26.65;9.15;;;12.20;99.90;;;;;;5068311;28;20070;-70
2023/05/14 05:58:10;;;;;;;17.48;8.48;;;12.20;99.90;;;;;;5069409;28;20501;-75
2023/05/14 06:00:35;;;;;;;23.15;9.07;;;12.30;99.90;;;;;;5069538;28;20461;-70
2023/05/14 06:03:01;;;;;;;23.77;8.25;;;12.40;99.90;;;;;;5069581;28;20079;-74
2023/05/14 06:05:26;;;;;;;26.88;8.43;;;12.60;99.90;;;;;;5069839;28;20063;-74
2023/05/14 06:07:52;;;;;;;26.05;9.60;;;12.50;99.90;;;;;;5069231;28;20146;-73
2023/05/14 06:10:18;;;;;;;24.85;7.70;;;12.60;99.90;;;;;;5069461;28;20406;-73
2023/05/14 06:12:44;;;;;;;21.45;7.85;;;12.70;99.90;;;;;;5069084;28;20055;-74
2023/05/14 06:15:11;;;;;;;18.50;7.47;;;12.90;99.90;;;;;;5068539;28;20044;-71
2023/05/14 06:17:37;;;;;;;23.63;7.30;;;13.00;99.90;;;;;;5067740;28;20084;-71
2023/05/14 06:20:06;;;;;;;16.08;7.93;;;13.10;99.90;;;;;;5069391;28;20079;-71
2023/05/14 06:22:33;;;;;;;16.52;6.72;;;13.20;99.90;;;;;;5068720;28;20413;-73
2023/05/14 06:24:58;;;;;;;22.58;7.43;;;13.30;99.90;;;;;;5068760;28;20391;-73
2023/05/14 06:27:24;;;;;;;20.20;6.25;;;13.50;99.90;;;;;;5069186;28;20036;-73
2023/05/14 06:29:49;;;;;;;17.02;6.97;;;13.60;99.90;;;;;;5068735;28;20066;-72
2023/05/14 06:32:16;;;;;;;22.70;6.63;;;13.70;99.90;;;;;;5067757;28;20059;-73
2023/05/14 06:34:42;;;;;;;14.63;6.18;;;13.80;99.90;;;;;;5069225;28;20032;-71
2023/05/14 06:37:08;;;;;;;22.42;6.63;;;13.90;99.90;;;;;;5067431;28;20048;-72
2023/05/14 06:39:36;;;;;;;22.20;6.55;;;14.10;99.90;;;;;;5068350;28;20055;-74
2023/05/14 06:42:01;;;;;;;18.92;6.13;;;14.00;99.90;;;;;;5068704;28;20055;-71
2023/05/14 06:44:27;;;;;;;22.05;6.60;;;14.10;99.90;;;;;;5064916;28;20041;-71
2023/05/14 06:46:53;;;;;;;20.00;7.32;;;14.20;99.90;;;;;;5063890;28;20044;-72
2023/05/14 06:49:19;;;;;;;18.35;7.13;;;14.20;99.90;;;;;;5068846;28;20032;-72
2023/05/14 06:51:44;;;;;;;15.45;6.10;;;14.20;99.90;;;;;;5069126;28;20067;-72
2023/05/14 06:54:10;;;;;;;13.50;6.03;;;14.30;99.90;;;;;;5071493;28;20044;-71
2023/05/14 06:56:36;;;;;;;17.05;6.40;;;14.40;99.90;;;;;;5072538;28;20437;-74
2023/05/14 06:59:02;;;;;;;14.07;5.97;;;14.40;99.90;;;;;;5072430;28;20127;-72
2023/05/14 07:01:27;;;;;;;22.92;6.35;;;14.70;99.90;;;;;;5068680;28;20082;-72
2023/05/14 07:03:53;;;;;;;15.77;6.00;;;14.50;99.90;;;;;;5071306;28;20048;-69
2023/05/14 07:06:19;;;;;;;19.15;6.65;;;14.60;99.90;;;;;;5073059;28;20067;-70
2023/05/14 07:08:47;;;;;;;17.17;6.25;;;14.60;99.90;;;;;;5064751;28;20037;-71
2023/05/14 07:11:13;;;;;;;19.15;6.47;;;14.60;99.90;;;;;;5071563;28;20095;-72
2023/05/14 07:13:39;;;;;;;13.05;6.32;;;14.60;99.90;;;;;;5073026;28;20049;-74
2023/05/14 07:16:07;;;;;;;20.15;6.50;;;14.70;99.90;;;;;;5072856;28;20045;-72
2023/05/14 07:18:36;;;;;;;20.88;6.40;;;14.80;99.90;;;;;;5072927;28;20040;-77
2023/05/14 07:21:03;;;;;;;17.00;6.07;;;14.80;99.90;;;;;;5054880;28;20566;-71
2023/05/14 07:23:29;;;;;;;17.55;5.43;;;14.90;99.90;;;;;;5065601;28;20064;-70
2023/05/14 07:25:55;;;;;;;14.07;6.47;;;15.00;99.90;;;;;;5072493;28;20080;-72
2023/05/14 07:28:20;;;;;;;17.92;5.88;;;15.10;99.90;;;;;;5070063;28;20144;-71
2023/05/14 07:30:46;;;;;;;12.25;5.50;;;15.20;99.90;;;;;;5062428;28;20060;-71
2023/05/14 07:33:11;;;;;;;19.45;7.50;;;15.30;99.90;;;;;;5056154;28;20052;-72
2023/05/14 07:35:37;;;;;;;15.80;6.90;;;15.40;99.90;;;;;;5055937;28;20041;-72
2023/05/14 07:38:04;;;;;;;15.23;6.00;;;15.40;99.90;;;;;;5058131;28;20048;-72
2023/05/14 07:40:30;;;;;;;14.82;6.30;;;15.60;99.90;;;;;;5058232;28;20036;-72
2023/05/14 07:42:55;;;;;;;16.02;6.18;;;15.90;99.90;;;;;;5055852;28;20051;-71
2023/05/14 07:45:21;;;;;;;17.05;6.30;;;16.10;99.90;;;;;;5062921;28;20411;-72
2023/05/14 07:47:50;;;;;;;15.18;6.00;;;16.20;99.90;;;;;;5058269;28;20045;-71
2023/05/14 07:50:17;;;;;;;13.02;6.10;;;16.40;99.90;;;;;;5059840;28;20120;-72
2023/05/14 07:52:43;;;;;;;15.25;5.88;;;16.60;99.90;;;;;;5060730;28;20717;-71
2023/05/14 07:55:09;;;;;;;16.77;5.40;;;16.80;99.90;;;;;;5059470;28;20057;-72
2023/05/14 07:57:36;;;;;;;18.63;6.03;;;17.10;99.90;;;;;;5062968;28;20399;-70
2023/05/14 08:00:02;;;;;;;18.13;6.63;;;17.30;99.90;;;;;;5060019;28;20487;-71
2023/05/14 08:02:28;;;;;;;16.75;5.95;;;17.50;99.90;;;;;;5060121;28;20458;-71
2023/05/14 08:04:54;;;;;;;15.85;5.28;;;17.60;99.90;;;;;;5062296;28;20029;-73
2023/05/14 08:07:20;;;;;;;16.55;6.43;;;17.60;99.90;;;;;;5062354;28;20033;-73
2023/05/14 08:09:46;;;;;;;13.77;5.65;;;17.80;99.90;;;;;;5063506;28;20380;-73
2023/05/14 08:12:11;;;;;;;13.80;5.15;;;17.90;99.90;;;;;;5062474;28;20156;-71
2023/05/14 08:14:37;;;;;;;12.80;5.20;;;18.10;99.90;;;;;;5065695;28;20080;-72
2023/05/14 08:17:03;;;;;;;16.92;5.30;;;18.20;99.90;;;;;;5064740;28;20041;-73
2023/05/14 08:19:29;;;;;;;16.25;4.95;;;18.40;99.90;;;;;;5065379;28;20052;-71
2023/05/14 08:21:55;;;;;;;16.60;4.53;;;18.50;99.90;;;;;;5067403;28;20076;-71
2023/05/14 08:24:20;;;;;;;17.85;4.95;;;18.60;99.90;;;;;;5064968;28;20486;-71
2023/05/14 08:26:46;;;;;;;20.48;5.93;;;18.80;99.90;;;;;;5066688;28;20045;-71
2023/05/14 08:29:11;;;;;;;11.07;4.57;;;18.90;99.90;;;;;;5067812;28;20048;-71
2023/05/14 08:31:37;;;;;;;14.20;4.57;;;19.10;99.90;;;;;;5067429;28;20072;-72
2023/05/14 08:34:03;;;;;;;14.23;4.60;;;19.10;99.90;;;;;;5068943;28;20045;-71
2023/05/14 08:36:28;;;;;;;15.30;4.93;;;19.30;99.90;;;;;;5068265;28;20776;-72
2023/05/14 08:38:54;;;;;;;14.90;6.15;;;19.30;99.90;;;;;;5069686;28;20048;-72
2023/05/14 08:41:20;;;;;;;16.13;5.38;;;19.20;99.90;;;;;;5069586;28;20380;-71
2023/05/14 08:44:12;;;;;;;16.35;4.97;;;19.30;99.90;;;;;;5067996;28;20518;-72
2023/05/14 08:46:38;;;;;;;15.20;4.85;;;19.20;99.90;;;;;;5066048;28;20092;-73
2023/05/14 08:49:32;;;;;;;16.05;5.40;;;19.30;99.90;;;;;;5068858;28;20048;-73
2023/05/14 08:51:58;;;;;;;14.30;4.95;;;19.40;99.90;;;;;;5068325;28;20045;-71
2023/05/14 08:54:25;;;;;;;19.70;4.85;;;19.40;99.90;;;;;;5068339;28;20123;-71
2023/05/14 08:56:52;;;;;;;21.42;6.20;;;19.60;99.90;;;;;;5064655;28;20047;-73
2023/05/14 08:59:18;;;;;;;22.67;12.32;;;19.60;99.90;;;;;;5069853;28;20052;-71
2023/05/14 09:01:47;;;;;;;15.70;5.15;;;19.70;99.90;;;;;;5071118;28;20407;-71
2023/05/14 09:04:19;;;;;;;15.18;5.20;;;19.90;99.90;;;;;;5066510;28;20058;-74
2023/05/14 09:06:48;;;;;;;14.73;5.32;;;20.10;99.90;;;;;;5054951;28;20091;-72
2023/05/14 09:09:14;;;;;;;14.18;5.18;;;20.20;99.90;;;;;;5060473;28;20131;-72
2023/05/14 09:11:41;;;;;;;11.43;4.30;;;20.20;99.90;;;;;;5071018;28;20151;-77
2023/05/14 09:14:08;;;;;;;13.77;4.57;;;20.20;99.90;;;;;;5052962;28;20245;-71
2023/05/14 09:16:35;;;;;;;12.82;4.50;;;20.10;99.90;;;;;;5051770;28;20033;-70
2023/05/14 09:19:06;;;;;;;14.45;4.88;;;20.10;99.90;;;;;;5057781;28;20052;-71
2023/05/14 09:21:33;;;;;;;18.25;5.32;;;20.20;99.90;;;;;;5051159;28;20061;-72
2023/05/14 09:23:59;;;;;;;20.45;6.57;;;20.30;99.90;;;;;;5052927;28;20484;-73
2023/05/14 09:26:26;;;;;;;23.67;14.40;;;20.40;99.90;;;;;;5084871;28;20072;-74
2023/05/14 09:28:56;;;;;;;13.95;5.35;;;20.40;99.90;;;;;;5056585;28;20096;-79
2023/05/14 09:31:22;;;;;;;13.48;5.25;;;20.40;99.90;;;;;;5053154;28;20048;-77
2023/05/14 09:33:52;;;;;;;13.10;4.80;;;20.40;99.90;;;;;;5052199;28;20090;-71
2023/05/14 09:36:18;;;;;;;17.77;5.22;;;20.60;99.90;;;;;;5052655;28;20131;-79
2023/05/14 09:38:44;;;;;;;15.20;5.35;;;20.70;99.90;;;;;;5056656;28;20040;-80
2023/05/14 09:41:10;;;;;;;15.52;5.13;;;20.90;99.90;;;;;;5052322;28;20128;-73
2023/05/14 09:43:35;;;;;;;14.73;5.32;;;21.10;99.90;;;;;;5054311;28;20168;-76
2023/05/14 09:46:01;;;;;;;12.13;4.65;;;21.10;99.90;;;;;;5069460;28;20088;-77
2023/05/14 09:48:27;;;;;;;14.10;4.55;;;21.40;99.90;;;;;;5061490;28;20147;-74
2023/05/14 09:50:53;;;;;;;12.80;5.20;;;21.50;99.90;;;;;;5058152;28;20045;-84
2023/05/14 09:53:19;;;;;;;14.75;5.53;;;21.60;99.90;;;;;;5055522;28;20063;-69
2023/05/14 09:55:45;;;;;;;14.25;4.90;;;21.60;99.90;;;;;;5037968;28;20056;-71
2023/05/14 09:58:13;;;;;;;15.23;5.95;;;21.80;99.90;;;;;;5054404;28;20048;-69
2023/05/14 10:00:41;;;;;;;12.93;4.55;;;22.00;99.90;;;;;;5055308;28;20558;-68
2023/05/14 10:03:08;;;;;;;18.20;4.50;;;22.20;99.90;;;;;;5054987;28;20045;-69
2023/05/14 10:05:39;;;;;;;13.80;4.50;;;22.20;99.90;;;;;;5054472;28;20063;-70
2023/05/14 10:08:23;;;;;;;11.43;4.53;;;22.30;99.90;;;;;;5054572;28;20131;-70
2023/05/14 10:10:50;;;;;;;11.30;4.68;;;22.50;99.90;;;;;;5055260;28;20049;-71
2023/05/14 10:13:21;;;;;;;13.85;4.57;;;22.50;99.90;;;;;;5053920;28;20471;-77
2023/05/14 10:16:04;;;;;;;13.27;4.43;;;22.60;99.90;;;;;;5054324;28;20053;-71
2023/05/14 10:18:33;;;;;;;18.27;5.05;;;22.70;99.90;;;;;;5054484;28;20115;-71
2023/05/14 10:21:04;;;;;;;13.02;5.07;;;22.70;99.90;;;;;;5056037;28;20488;-69
2023/05/14 10:23:30;;;;;;;12.30;4.60;;;22.80;99.90;;;;;;5054581;28;20033;-70
2023/05/14 10:25:58;;;;;;;13.60;4.47;;;22.70;99.90;;;;;;5053926;28;20086;-70
2023/05/14 10:28:24;;;;;;;9.65;4.72;;;22.70;99.90;;;;;;5054462;28;20036;-70
2023/05/14 10:30:50;;;;;;;11.57;4.85;;;22.80;99.90;;;;;;5054289;28;20385;-71
2023/05/14 10:33:17;;;;;;;13.23;3.95;;;22.80;99.90;;;;;;5054886;28;20044;-72
2023/05/14 10:36:04;;;;;;;13.82;4.47;;;22.70;99.90;;;;;;5053551;28;20472;-78
2023/05/14 10:38:37;;;;;;;12.48;4.70;;;23.00;99.90;;;;;;5058507;28;20139;-70
2023/05/14 10:41:05;;;;;;;9.30;4.55;;;22.90;99.90;;;;;;5054542;28;20111;-73
2023/05/14 10:43:37;;;;;;;15.30;4.53;;;23.10;99.90;;;;;;5055863;28;20391;-71
2023/05/14 10:46:03;;;;;;;11.05;4.38;;;23.20;99.90;;;;;;5054322;28;20060;-69
2023/05/14 10:48:30;;;;;;;12.05;4.55;;;23.40;99.90;;;;;;5054807;28;20047;-70
2023/05/14 10:50:56;;;;;;;13.20;4.30;;;23.40;99.90;;;;;;5054050;28;20044;-71
2023/05/14 10:53:41;;;;;;;10.98;4.25;;;23.50;99.90;;;;;;5055259;28;20041;-68
2023/05/14 10:56:12;;;;;;;12.23;5.13;;;23.50;99.90;;;;;;5054052;28;20136;-71
2023/05/14 10:58:42;;;;;;;15.32;4.95;;;23.60;99.90;;;;;;5055957;28;20078;-73
2023/05/14 11:01:10;;;;;;;11.13;4.32;;;23.60;99.90;;;;;;5052491;28;20051;-72
2023/05/14 11:03:44;;;;;;;11.07;4.85;;;23.60;99.90;;;;;;5055376;28;20052;-74
2023/05/14 11:06:11;;;;;;;17.98;5.85;;;23.50;99.90;;;;;;5053731;28;20048;-72
2023/05/14 11:08:38;;;;;;;13.13;3.90;;;23.60;99.90;;;;;;5054963;28;20049;-73
2023/05/14 11:11:05;;;;;;;10.68;4.32;;;23.40;99.90;;;;;;5054679;28;20051;-70
2023/05/14 11:13:31;;;;;;;10.02;4.45;;;23.40;99.90;;;;;;5053870;28;20575;-73
2023/05/14 11:15:59;;;;;;;12.30;4.53;;;23.60;99.90;;;;;;5055772;28;20507;-71
2023/05/14 11:18:29;;;;;;;11.07;4.70;;;23.70;99.90;;;;;;5053670;28;20602;-73
2023/05/14 11:20:59;;;;;;;12.05;4.88;;;23.70;99.90;;;;;;5054318;28;20134;-73
2023/05/14 11:23:25;;;;;;;10.25;4.50;;;23.90;99.90;;;;;;5053766;28;20072;-73
2023/05/14 11:25:53;;;;;;;10.77;4.60;;;24.00;99.90;;;;;;5054310;28;20084;-73
2023/05/14 11:28:25;;;;;;;8.57;4.60;;;24.00;99.90;;;;;;5054528;28;20051;-74
2023/05/14 11:30:52;;;;;;;9.30;3.85;;;24.00;99.90;;;;;;5053572;28;20048;-72
2023/05/14 11:33:19;;;;;;;14.07;4.57;;;24.20;99.90;;;;;;5053810;28;20045;-75
2023/05/14 11:35:46;;;;;;;9.20;4.30;;;24.40;99.90;;;;;;5052229;28;20100;-72
2023/05/14 11:38:16;;;;;;;8.57;4.00;;;24.50;99.90;;;;;;5055523;28;20600;-73
2023/05/14 11:40:49;;;;;;;12.45;3.92;;;24.50;99.90;;;;;;5055255;28;20047;-73
2023/05/14 11:43:15;;;;;;;10.48;4.25;;;24.70;99.90;;;;;;5057771;28;20697;-78
2023/05/14 11:45:41;;;;;;;11.85;4.10;;;24.90;99.90;;;;;;5057499;28;20048;-73
2023/05/14 11:48:15;;;;;;;8.57;3.70;;;25.00;99.90;;;;;;5057249;28;20051;-81
2023/05/14 11:50:46;;;;;;;8.40;4.15;;;25.10;99.90;;;;;;5069954;28;20403;-75
2023/05/14 11:53:16;;;;;;;10.48;4.28;;;25.10;99.90;;;;;;5060263;28;20041;-75
2023/05/14 11:55:42;;;;;;;11.18;3.90;;;25.10;99.90;;;;;;5063157;28;20040;-80
2023/05/14 11:58:08;;;;;;;11.85;4.68;;;25.30;99.90;;;;;;5055863;28;20055;-78
2023/05/14 12:00:33;;;;;;;11.60;4.28;;;25.40;99.90;;;;;;5060162;28;20412;-72
2023/05/14 12:02:59;;;;;;;9.68;4.80;;;25.70;99.90;;;;;;5058897;28;20051;-73
2023/05/14 12:05:25;;;;;;;11.73;4.00;;;25.70;99.90;;;;;;5057277;28;20099;-77
2023/05/14 12:07:50;;;;;;;10.23;4.00;;;25.80;99.90;;;;;;5064404;28;20056;-74
2023/05/14 12:10:16;;;;;;;8.10;4.22;;;25.90;99.90;;;;;;5058508;28;20256;-71
2023/05/14 12:12:46;;;;;;;10.35;4.32;;;26.00;99.90;;;;;;5062228;28;20040;-77
2023/05/14 12:15:12;;;;;;;9.55;3.83;;;25.80;99.90;;;;;;5063773;28;20044;-78
2023/05/14 12:17:38;;;;;;;9.63;3.90;;;25.50;99.90;;;;;;5072173;28;20036;-74
2023/05/14 12:20:09;;;;;;;10.63;3.65;;;25.60;99.90;;;;;;5070717;28;20506;-73
2023/05/14 12:22:35;;;;;;;12.13;3.78;;;25.50;99.90;;;;;;5071673;28;20475;-73
2023/05/14 12:25:00;;;;;;;10.52;3.47;;;25.60;99.90;;;;;;5053515;28;20098;-73
2023/05/14 12:27:28;;;;;;;6.90;3.25;;;25.50;99.90;;;;;;5063402;28;20390;-74
2023/05/14 12:30:04;;;;;;;11.57;4.47;;;25.60;99.90;;;;;;5071977;28;20114;-73
2023/05/14 12:32:33;;;;;;;11.70;3.92;;;25.40;99.80;;;;;;5071640;28;20513;-73
2023/05/14 12:35:02;;;;;;;15.57;4.32;;;25.40;99.90;;;;;;5071760;28;20499;-73